Laramie, WY

3:12 PM MDT on August 30, 2014 (GMT -0600)
WYDOT Strouss Hill | Change Station
CLOSE
Current Station
Personal Weather Station
Location: Centennial, WY
Elevation: 7745 ft
Nearby Weather Stations

Elev 7745 ft 41.50 °N, 106.05 °W | Updated 3 days ago

Thunderstorm
Thunderstorm
63 °F
Feels Like 63 °F
N
20
Wind Variable Wind from WSW
Gusts 26 mph

Today
High -- | Low -- °F
--% Chance of Precip.
Yesterday
High -- | Low -- °F
Precip. -- in
6:28 AM 7:40 PM
Waxing Crescent, 24% visible
Pressure 30.05 in
Visibility 10.0 miles
Clouds Clear
Dew Point 34 °F
Humidity 34%
Rainfall -999.00 in
Snow Depth Not available.
UV 8 out of 12
Pollen 10.20 out of 12
Air Quality Not available.
Flu Activity Not available.
SPECI KLAR 302109Z AUTO 25013KT 10SM VCTS CLR 22/04 A3005 RMK AO2 LTG DSNT NE AND SW AND W T02220039

More Conditions Fewer Conditions

Pressure 30.05 in
Visibility 10.0 miles
Clouds Clear
Dew Point 34 °F
Humidity 34%
Rainfall -999.00 in
Snow Depth Not available.
UV 8 out of 12
Pollen 10.20 out of 12
Air Quality Not available.
Flu Activity Not available.
SPECI KLAR 302109Z AUTO 25013KT 10SM VCTS CLR 22/04 A3005 RMK AO2 LTG DSNT NE AND SW AND W T02220039

More Conditions Fewer Conditions

Nowcast | as of 1:54 PM MDT on August 30, 2014

Showers and thunderstorms will continue to develop this afternoon across Carbon and Albany counties. At 155 PM...a line of storms is moving to the east over western portions of Carbon County...while more isolated storms are occurring over the snowy...Sierra Madre...and Laramie Mountains. Expect gusty winds up to 45 mph with this activity...along with brief moderate rain and occasional lightning.

×

10-Day Weather Forecast

Almanac

Astronomy

Aug. 30, 2014 Rise Set
Actual Time 6:28 AM MDT 7:40 PM MDT
Civil Twilight 5:59 AM MDT 8:08 PM MDT
Nautical Twilight 5:25 AM MDT 8:43 PM MDT
Astronomical Twilight 4:49 AM MDT 9:18 PM MDT
Moon 11:22 AM MDT 10:12 PM MDT
Length of Visible Light 14h 09m
Length of Day
13h 12m
Tomorrow will be 2m 39s shorter.
Waxing Crescent, 24% of the Moon is Illuminated
Today
Waxing Crescent
Sep 2
First Quarter
Sep 8
Full
Sep 15
Last Quarter
Sep 24
New

Today's Extremes

State Highs State Lows

Community

WunderPhotos

Upload Photos

1,748,634 photos uploaded!

WunderBlogs® & News

Nearby

Snow Depth

Station Depth Elevation
Crow Creek 5 in 8330 ft
Battle Mountain 0 in 7440 ft
Big Sandy Opening 0 in 9080 ft
New Fork Lake 1 in 8340 ft
Kendall R.S. 0 in 7740 ft

Earthquake Activity

City Distance Mag. Time & Date
No recent earthquake activity has been reported nearby.
Minimum magnitude displayed is 2.5.

Coastal Water Temperatures

Place Temperature
No Stations Reporting

Nearby Weather Stations